createdAt,value
2018-10-17T00:00:24.771Z,15.90
2018-10-17T00:02:53.351Z,15.80
2018-10-17T00:05:21.916Z,15.80
2018-10-17T00:07:50.444Z,15.80
2018-10-17T00:10:18.991Z,15.70
2018-10-17T00:12:48.336Z,15.70
2018-10-17T00:15:17.024Z,15.80
2018-10-17T00:17:45.692Z,15.70
2018-10-17T00:20:14.264Z,15.70
2018-10-17T00:22:42.781Z,15.60
2018-10-17T00:25:11.366Z,15.50
2018-10-17T00:27:39.890Z,15.50
2018-10-17T00:30:10.710Z,15.50
2018-10-17T00:32:39.354Z,15.40
2018-10-17T00:35:08.615Z,15.40
2018-10-17T00:37:37.196Z,15.40
2018-10-17T00:40:05.831Z,15.40
2018-10-17T00:42:34.652Z,15.40
2018-10-17T00:45:03.232Z,15.30
2018-10-17T00:47:31.794Z,15.20
2018-10-17T00:50:00.371Z,15.20
2018-10-17T00:52:28.904Z,15.20
2018-10-17T00:54:57.512Z,15.20
2018-10-17T00:57:26.102Z,15.20
2018-10-17T00:59:54.631Z,15.20
2018-10-17T01:02:23.148Z,15.10
2018-10-17T01:04:51.774Z,15.10
2018-10-17T01:07:20.328Z,15.10
2018-10-17T01:09:48.880Z,15.10
2018-10-17T01:12:17.427Z,15.00
2018-10-17T01:14:45.976Z,15.00
2018-10-17T01:17:14.646Z,15.00
2018-10-17T01:19:43.114Z,15.00
2018-10-17T01:22:11.646Z,15.00
2018-10-17T01:24:40.205Z,15.00
2018-10-17T01:27:08.781Z,15.00
2018-10-17T01:29:37.490Z,15.00
2018-10-17T01:32:06.069Z,14.90
2018-10-17T01:34:34.704Z,14.90
2018-10-17T01:37:03.281Z,14.90
2018-10-17T01:39:31.805Z,14.80
2018-10-17T01:42:00.348Z,14.80
2018-10-17T01:44:28.869Z,14.80
2018-10-17T01:46:57.437Z,14.80
2018-10-17T01:49:26.012Z,14.90
2018-10-17T01:51:54.551Z,14.80
2018-10-17T01:54:23.135Z,14.80
2018-10-17T01:56:51.666Z,14.80
2018-10-17T01:59:20.244Z,14.70
2018-10-17T02:01:48.764Z,14.80
2018-10-17T02:04:17.371Z,14.70
2018-10-17T02:06:45.945Z,14.70
2018-10-17T02:09:14.545Z,14.70
2018-10-17T02:11:43.100Z,14.60
2018-10-17T02:14:11.676Z,14.60
2018-10-17T02:16:40.203Z,14.60
2018-10-17T02:19:08.822Z,14.50
2018-10-17T02:21:37.304Z,14.50
2018-10-17T02:24:06.721Z,14.50
2018-10-17T02:26:35.253Z,14.50
2018-10-17T02:29:04.030Z,14.40
2018-10-17T02:31:32.513Z,14.50
2018-10-17T02:34:01.012Z,14.40
2018-10-17T02:36:29.606Z,14.50
2018-10-17T02:38:58.162Z,14.40
2018-10-17T02:41:26.868Z,14.40
2018-10-17T02:43:55.380Z,14.40
2018-10-17T02:46:23.949Z,14.40
2018-10-17T02:48:52.547Z,14.40
2018-10-17T02:51:21.108Z,14.30
2018-10-17T02:53:49.763Z,14.40
2018-10-17T02:56:18.396Z,14.30
2018-10-17T02:58:47.020Z,14.30
2018-10-17T03:01:15.676Z,14.30
2018-10-17T03:03:44.196Z,14.20
2018-10-17T03:06:12.750Z,14.20
2018-10-17T03:08:41.261Z,14.10
2018-10-17T03:11:10.230Z,14.10
2018-10-17T03:13:38.896Z,14.10
2018-10-17T03:16:07.480Z,14.10
2018-10-17T03:18:36.021Z,14.00
2018-10-17T03:21:04.533Z,14.10
2018-10-17T03:23:33.120Z,14.10
2018-10-17T03:26:01.674Z,14.00
2018-10-17T03:28:30.233Z,14.10
2018-10-17T03:30:58.833Z,14.10
2018-10-17T03:33:27.321Z,14.10
2018-10-17T03:35:56.431Z,14.10
2018-10-17T03:38:24.946Z,14.00
2018-10-17T03:40:53.526Z,14.00
2018-10-17T03:43:22.062Z,14.00
2018-10-17T03:45:50.615Z,14.00
2018-10-17T03:48:19.306Z,14.00
2018-10-17T03:50:47.856Z,14.00
2018-10-17T03:53:16.540Z,14.00
2018-10-17T03:55:45.055Z,14.00
2018-10-17T03:58:13.606Z,13.90
2018-10-17T04:00:42.175Z,13.90
2018-10-17T04:03:10.749Z,13.90
2018-10-17T04:05:39.286Z,13.90
2018-10-17T04:08:07.895Z,14.00
2018-10-17T04:10:36.434Z,14.10
2018-10-17T04:13:05.156Z,13.90
2018-10-17T04:15:33.703Z,13.80
2018-10-17T04:18:02.753Z,13.80
2018-10-17T04:20:31.471Z,13.80
2018-10-17T04:23:00.053Z,13.70
2018-10-17T04:25:28.585Z,13.70
2018-10-17T04:27:57.312Z,13.70
2018-10-17T04:30:26.238Z,13.70
2018-10-17T04:32:54.821Z,13.70
2018-10-17T04:35:23.374Z,13.60
2018-10-17T04:37:54.908Z,13.60
2018-10-17T04:40:23.442Z,13.60
2018-10-17T04:42:52.043Z,13.60
2018-10-17T04:45:20.574Z,13.60
2018-10-17T04:47:49.088Z,13.50
2018-10-17T04:50:17.652Z,13.50
2018-10-17T04:52:46.206Z,13.50
2018-10-17T04:55:14.771Z,13.50
2018-10-17T04:57:43.386Z,13.50
2018-10-17T05:00:12.941Z,13.60
2018-10-17T05:02:42.884Z,13.60
2018-10-17T05:05:12.004Z,13.70
2018-10-17T05:07:40.735Z,13.60
2018-10-17T05:10:09.574Z,13.60
2018-10-17T05:12:38.262Z,13.60
2018-10-17T05:15:07.087Z,13.50
2018-10-17T05:17:35.696Z,13.60
2018-10-17T05:20:04.739Z,13.50
2018-10-17T05:22:33.256Z,13.50
2018-10-17T05:25:02.186Z,13.50
2018-10-17T05:27:30.775Z,13.50
2018-10-17T05:30:01.112Z,13.50
2018-10-17T05:32:29.754Z,13.50
2018-10-17T05:34:58.349Z,13.50
2018-10-17T05:37:26.976Z,13.50
2018-10-17T05:39:55.524Z,13.50
2018-10-17T05:42:24.035Z,13.40
2018-10-17T05:44:52.589Z,13.40
2018-10-17T05:47:21.109Z,13.40
2018-10-17T05:49:49.665Z,13.40
2018-10-17T05:52:18.237Z,13.40
2018-10-17T05:54:46.880Z,13.60
2018-10-17T05:57:15.404Z,13.50
2018-10-17T05:59:43.993Z,13.50
2018-10-17T06:02:17.356Z,13.50
2018-10-17T06:04:47.992Z,13.50
2018-10-17T06:07:18.097Z,13.50
2018-10-17T06:09:48.445Z,13.50
2018-10-17T06:12:19.601Z,13.40
2018-10-17T06:14:50.419Z,13.40
2018-10-17T06:17:24.079Z,13.50
2018-10-17T06:22:50.070Z,13.60
2018-10-17T06:25:19.546Z,13.60
2018-10-17T06:27:48.230Z,13.60
2018-10-17T06:30:18.041Z,13.70
2018-10-17T06:32:46.782Z,13.70
2018-10-17T06:35:15.613Z,13.70
2018-10-17T06:37:44.538Z,13.70
2018-10-17T06:40:13.238Z,13.80
2018-10-17T06:42:41.839Z,13.80
2018-10-17T06:45:10.452Z,13.80
2018-10-17T06:47:39.697Z,13.80
2018-10-17T06:50:15.377Z,13.90
2018-10-17T06:52:45.659Z,13.90
2018-10-17T06:55:19.496Z,14.00
2018-10-17T06:58:12.129Z,14.10
2018-10-17T07:04:25.472Z,14.20
2018-10-17T07:06:55.075Z,14.30
2018-10-17T07:09:24.416Z,14.30
2018-10-17T07:11:53.049Z,14.30
2018-10-17T07:14:22.452Z,14.30
2018-10-17T07:16:51.135Z,14.30
2018-10-17T07:19:19.932Z,14.30
2018-10-17T07:21:48.569Z,14.30
2018-10-17T07:24:17.213Z,14.40
2018-10-17T07:26:45.802Z,14.40
2018-10-17T07:29:14.431Z,14.40
2018-10-17T07:31:43.101Z,14.40
2018-10-17T07:34:11.707Z,14.30
2018-10-17T07:36:40.474Z,14.40
2018-10-17T07:39:10.110Z,14.30
2018-10-17T07:41:38.725Z,14.40
2018-10-17T07:44:07.450Z,14.40
2018-10-17T07:46:36.222Z,14.50
2018-10-17T07:49:05.010Z,14.50
2018-10-17T07:51:34.129Z,14.50
2018-10-17T07:54:02.883Z,14.60
2018-10-17T07:56:31.774Z,14.60
2018-10-17T07:59:01.340Z,14.70
2018-10-17T08:01:30.046Z,14.70
2018-10-17T08:03:58.830Z,14.80
2018-10-17T08:06:29.366Z,14.80
2018-10-17T08:08:59.969Z,14.90
2018-10-17T08:11:29.268Z,15.00
2018-10-17T08:13:58.064Z,15.10
2018-10-17T08:16:26.874Z,15.10
2018-10-17T08:18:55.570Z,15.20
2018-10-17T08:21:24.319Z,15.20
2018-10-17T08:23:53.018Z,15.30
2018-10-17T08:26:22.245Z,15.40
2018-10-17T08:28:50.942Z,15.40
2018-10-17T08:31:19.676Z,15.50
2018-10-17T08:33:48.287Z,15.50
2018-10-17T08:36:17.080Z,15.60
2018-10-17T08:38:45.531Z,15.60
2018-10-17T08:41:14.353Z,15.70
2018-10-17T08:43:43.174Z,15.70
2018-10-17T08:46:12.424Z,15.80
2018-10-17T08:48:41.313Z,15.80
2018-10-17T08:51:10.292Z,15.90
2018-10-17T08:53:38.937Z,16.00
2018-10-17T08:56:09.084Z,16.00
2018-10-17T08:58:37.709Z,16.10
2018-10-17T09:01:07.227Z,16.20
2018-10-17T09:03:38.264Z,16.30
2018-10-17T09:06:06.979Z,16.40
2018-10-17T09:08:35.508Z,16.60
2018-10-17T09:11:04.148Z,16.70
2018-10-17T09:13:32.909Z,16.70
2018-10-17T09:16:01.743Z,16.80
2018-10-17T09:18:30.381Z,16.90
2018-10-17T09:20:59.283Z,17.10
2018-10-17T09:23:28.724Z,17.20
2018-10-17T09:25:57.303Z,17.30
2018-10-17T09:28:25.976Z,17.40
2018-10-17T09:30:54.559Z,17.60
2018-10-17T09:33:23.145Z,17.70
2018-10-17T09:35:51.802Z,17.90
2018-10-17T09:38:20.431Z,18.00
2018-10-17T09:40:49.010Z,18.00
2018-10-17T09:43:17.628Z,18.10
2018-10-17T09:45:46.189Z,18.20
2018-10-17T09:48:14.864Z,18.30
2018-10-17T09:50:43.469Z,18.50
2018-10-17T09:53:12.034Z,18.60
2018-10-17T09:55:40.613Z,18.70
2018-10-17T09:58:09.243Z,18.80
2018-10-17T10:00:43.028Z,18.80
2018-10-17T10:03:11.653Z,19.00
2018-10-17T10:05:40.291Z,19.10
2018-10-17T10:08:08.894Z,19.20
2018-10-17T10:10:37.561Z,19.30
2018-10-17T10:13:06.286Z,19.40
2018-10-17T10:15:35.000Z,19.60
2018-10-17T10:18:03.566Z,19.70
2018-10-17T10:20:32.171Z,19.80
2018-10-17T10:23:01.122Z,19.90
2018-10-17T10:25:29.870Z,20.00
2018-10-17T10:27:58.617Z,20.10
2018-10-17T10:30:27.613Z,20.20
2018-10-17T10:32:56.258Z,20.30
2018-10-17T10:35:24.920Z,20.30
2018-10-17T10:37:53.596Z,20.40
2018-10-17T10:40:22.377Z,20.60
2018-10-17T10:42:50.985Z,20.70
2018-10-17T10:45:19.778Z,20.70
2018-10-17T10:47:48.583Z,20.90
2018-10-17T10:50:17.537Z,21.00
2018-10-17T10:52:46.120Z,21.10
2018-10-17T10:55:14.767Z,21.20
2018-10-17T10:57:43.411Z,21.30
2018-10-17T11:00:12.143Z,21.40
2018-10-17T11:02:40.994Z,21.50
2018-10-17T11:05:09.752Z,21.60
2018-10-17T11:07:38.399Z,21.70
2018-10-17T11:10:07.343Z,21.90
2018-10-17T11:12:36.082Z,22.00
2018-10-17T11:15:05.381Z,22.10
2018-10-17T11:17:33.941Z,22.20
2018-10-17T11:20:02.602Z,22.30
2018-10-17T11:22:31.361Z,22.40
2018-10-17T11:25:00.061Z,22.40
2018-10-17T11:27:28.974Z,22.50
2018-10-17T11:29:57.660Z,22.50
2018-10-17T11:32:26.284Z,22.60
2018-10-17T11:34:55.115Z,22.70
2018-10-17T11:37:23.891Z,22.70
2018-10-17T11:39:52.631Z,22.80
2018-10-17T11:42:21.554Z,22.90
2018-10-17T11:44:50.174Z,22.90
2018-10-17T11:47:18.867Z,22.90
2018-10-17T11:49:47.681Z,23.00
2018-10-17T11:52:16.413Z,23.10
2018-10-17T11:54:45.165Z,23.10
2018-10-17T11:57:13.887Z,23.20
2018-10-17T11:59:42.558Z,23.30
2018-10-17T12:02:11.279Z,23.40
2018-10-17T12:04:40.178Z,23.50
2018-10-17T12:07:08.439Z,23.60
2018-10-17T12:09:37.054Z,23.70
2018-10-17T12:12:06.025Z,23.70
2018-10-17T12:14:34.653Z,23.70
2018-10-17T12:17:03.443Z,23.80
2018-10-17T12:19:32.119Z,23.80
2018-10-17T12:22:00.694Z,23.80
2018-10-17T12:24:29.265Z,23.80
2018-10-17T12:26:57.866Z,23.80
2018-10-17T12:29:26.535Z,23.90
2018-10-17T12:31:55.104Z,23.90
2018-10-17T12:34:23.658Z,24.00
2018-10-17T12:36:52.219Z,24.00
2018-10-17T12:39:20.990Z,24.10
2018-10-17T12:41:49.417Z,24.00
2018-10-17T12:44:18.078Z,23.90
2018-10-17T12:46:46.571Z,23.90
2018-10-17T12:49:15.575Z,23.80
2018-10-17T12:51:44.020Z,23.80
2018-10-17T12:54:12.552Z,23.70
2018-10-17T12:56:41.326Z,23.70
2018-10-17T12:59:09.903Z,23.60
2018-10-17T13:01:38.459Z,23.50
2018-10-17T13:04:07.288Z,23.50
2018-10-17T13:06:35.820Z,23.40
2018-10-17T13:09:07.099Z,23.40
2018-10-17T13:11:35.738Z,23.30
2018-10-17T13:14:04.373Z,23.20
2018-10-17T13:16:32.992Z,23.20
2018-10-17T13:19:01.888Z,23.10
2018-10-17T13:21:30.454Z,23.10
2018-10-17T13:23:59.744Z,23.10
2018-10-17T13:26:28.490Z,23.10
2018-10-17T13:28:57.085Z,23.10
2018-10-17T13:31:25.744Z,23.10
2018-10-17T13:33:54.288Z,23.00
2018-10-17T13:36:22.894Z,23.00
2018-10-17T13:38:51.712Z,23.00
2018-10-17T13:41:20.512Z,23.00
2018-10-17T13:43:49.077Z,23.00
2018-10-17T13:46:17.623Z,23.00
2018-10-17T13:48:46.460Z,23.00
2018-10-17T13:51:15.241Z,22.90
2018-10-17T13:53:44.342Z,22.90
2018-10-17T13:56:14.293Z,22.90
2018-10-17T13:58:42.842Z,22.90
2018-10-17T14:01:13.090Z,23.00
2018-10-17T14:03:41.832Z,23.00
2018-10-17T14:06:10.674Z,23.00
2018-10-17T14:08:39.293Z,23.00
2018-10-17T14:11:08.230Z,23.00
2018-10-17T14:13:37.139Z,22.90
2018-10-17T14:16:06.460Z,22.90
2018-10-17T14:18:35.104Z,22.90
2018-10-17T14:21:03.703Z,22.80
2018-10-17T14:23:32.546Z,22.80
2018-10-17T14:26:01.320Z,22.80
2018-10-17T14:28:29.878Z,22.70
2018-10-17T14:30:58.660Z,22.70
2018-10-17T14:33:27.351Z,22.70
2018-10-17T14:35:56.044Z,22.70
2018-10-17T14:38:24.628Z,22.80
2018-10-17T14:40:53.252Z,22.80
2018-10-17T14:43:21.902Z,23.00
2018-10-17T14:45:50.637Z,23.10
2018-10-17T14:48:19.531Z,23.80
2018-10-17T14:50:48.181Z,25.20
2018-10-17T14:53:16.898Z,26.70
2018-10-17T14:55:45.554Z,26.90
2018-10-17T14:58:14.559Z,27.30
2018-10-17T15:00:43.669Z,27.70
2018-10-17T15:03:12.297Z,27.70
2018-10-17T15:05:40.768Z,27.20
2018-10-17T15:08:09.372Z,26.80
2018-10-17T15:10:38.193Z,26.50
2018-10-17T15:13:06.605Z,26.10
2018-10-17T15:15:39.228Z,25.70
2018-10-17T15:18:08.304Z,25.50
2018-10-17T15:20:36.884Z,25.30
2018-10-17T15:23:05.532Z,25.00
2018-10-17T15:25:34.061Z,24.70
2018-10-17T15:28:02.975Z,24.50
2018-10-17T15:30:31.658Z,24.40
2018-10-17T15:33:00.223Z,24.20
2018-10-17T15:35:28.821Z,24.00
2018-10-17T15:37:57.470Z,23.90
2018-10-17T15:40:26.112Z,23.70
2018-10-17T15:42:54.833Z,23.50
2018-10-17T15:45:23.533Z,23.30
2018-10-17T15:47:52.199Z,23.20
2018-10-17T15:50:20.798Z,23.00
2018-10-17T15:52:49.399Z,22.90
2018-10-17T15:55:18.026Z,22.70
2018-10-17T15:57:46.576Z,22.60
2018-10-17T16:00:15.283Z,22.40
2018-10-17T16:02:43.823Z,22.30
2018-10-17T16:05:12.608Z,22.10
2018-10-17T16:07:41.657Z,22.00
2018-10-17T16:10:10.240Z,21.90
2018-10-17T16:12:39.276Z,21.70
2018-10-17T16:15:09.235Z,21.60
2018-10-17T16:17:37.856Z,21.50
2018-10-17T16:20:08.441Z,21.30
2018-10-17T16:22:37.228Z,21.20
2018-10-17T16:25:06.341Z,21.20
2018-10-17T16:27:34.979Z,21.00
2018-10-17T16:30:03.635Z,20.90
2018-10-17T16:32:32.242Z,20.80
2018-10-17T16:35:00.884Z,20.80
2018-10-17T16:37:29.660Z,20.70
2018-10-17T16:39:58.292Z,20.60
2018-10-17T16:42:26.846Z,20.50
2018-10-17T16:44:55.412Z,20.30
2018-10-17T16:47:24.026Z,20.20
2018-10-17T16:49:52.617Z,20.10
2018-10-17T16:52:21.337Z,20.00
2018-10-17T16:54:49.975Z,19.90
2018-10-17T16:57:18.660Z,19.80
2018-10-17T16:59:47.179Z,19.70
2018-10-17T17:02:15.767Z,19.70
2018-10-17T17:04:44.324Z,19.60
2018-10-17T17:07:13.431Z,19.50
2018-10-17T17:09:41.984Z,19.50
2018-10-17T17:12:10.626Z,19.40
2018-10-17T17:14:39.175Z,19.30
2018-10-17T17:17:07.660Z,19.30
2018-10-17T17:19:36.210Z,19.20
2018-10-17T17:22:04.849Z,19.10
2018-10-17T17:24:33.441Z,19.00
2018-10-17T17:27:02.416Z,19.00
2018-10-17T17:29:30.970Z,18.90
2018-10-17T17:31:59.532Z,18.80
2018-10-17T17:34:28.080Z,18.80
2018-10-17T17:36:56.627Z,18.80
2018-10-17T17:39:25.218Z,18.70
2018-10-17T17:41:54.058Z,18.60
2018-10-17T17:44:22.666Z,18.60
2018-10-17T17:46:51.255Z,18.50
2018-10-17T17:49:19.883Z,18.50
2018-10-17T17:51:48.440Z,18.40
2018-10-17T17:54:17.013Z,18.40
2018-10-17T17:56:45.585Z,18.30
2018-10-17T17:59:14.144Z,18.30
2018-10-17T18:01:42.657Z,18.20
2018-10-17T18:04:11.293Z,18.20
2018-10-17T18:06:39.905Z,18.10
2018-10-17T18:09:10.298Z,18.10
2018-10-17T18:11:38.986Z,18.00
2018-10-17T18:14:07.600Z,18.00
2018-10-17T18:16:36.175Z,18.00
2018-10-17T18:19:05.007Z,17.90
2018-10-17T18:21:33.624Z,17.90
2018-10-17T18:24:03.023Z,17.90
2018-10-17T18:26:32.922Z,17.80
2018-10-17T18:29:09.026Z,17.80
2018-10-17T18:31:38.231Z,17.80
2018-10-17T18:34:06.878Z,17.70
2018-10-17T18:36:35.513Z,17.70
2018-10-17T18:39:05.229Z,17.70
2018-10-17T18:41:33.784Z,17.60
2018-10-17T18:44:02.895Z,17.70
2018-10-17T18:46:31.481Z,17.60
2018-10-17T18:49:00.106Z,17.60
2018-10-17T18:51:28.683Z,17.60
2018-10-17T18:53:57.437Z,17.60
2018-10-17T18:56:26.527Z,17.50
2018-10-17T18:58:55.786Z,17.50
2018-10-17T19:01:24.597Z,17.50
2018-10-17T19:03:53.614Z,17.50
2018-10-17T19:06:22.477Z,17.50
2018-10-17T19:08:51.905Z,17.40
2018-10-17T19:11:20.806Z,17.40
2018-10-17T19:13:49.785Z,17.40
2018-10-17T19:16:18.685Z,17.40
2018-10-17T19:18:47.495Z,17.30
2018-10-17T19:21:16.360Z,17.30
2018-10-17T19:23:45.034Z,17.30
2018-10-17T19:26:13.830Z,17.30
2018-10-17T19:28:42.699Z,17.30
2018-10-17T19:31:11.691Z,17.30
2018-10-17T19:33:40.315Z,17.30
2018-10-17T19:36:09.159Z,17.30
2018-10-17T19:38:37.920Z,17.20
2018-10-17T19:41:06.701Z,17.20
2018-10-17T19:43:35.428Z,17.20
2018-10-17T19:46:05.309Z,17.10
2018-10-17T19:48:34.147Z,17.10
2018-10-17T19:51:02.948Z,17.10
2018-10-17T19:53:31.730Z,17.10
2018-10-17T19:56:00.656Z,17.10
2018-10-17T19:58:29.863Z,17.10
2018-10-17T20:00:58.979Z,17.00
2018-10-17T20:03:27.724Z,17.00
2018-10-17T20:05:56.645Z,17.00
2018-10-17T20:08:25.484Z,17.00
2018-10-17T20:10:54.420Z,17.00
2018-10-17T20:13:23.428Z,16.90
2018-10-17T20:15:52.740Z,17.00
2018-10-17T20:18:21.692Z,17.00
2018-10-17T20:20:50.396Z,16.90
2018-10-17T20:23:19.058Z,16.90
2018-10-17T20:25:47.807Z,16.90
2018-10-17T20:28:16.409Z,16.80
2018-10-17T20:30:45.035Z,16.80
2018-10-17T20:33:13.864Z,16.80
2018-10-17T20:35:42.384Z,16.70
2018-10-17T20:38:11.085Z,16.70
2018-10-17T20:40:40.708Z,16.70
2018-10-17T20:43:09.494Z,16.70
2018-10-17T20:45:38.058Z,16.60
2018-10-17T20:48:06.750Z,16.60
2018-10-17T20:50:35.816Z,16.60
2018-10-17T20:53:04.475Z,16.50
2018-10-17T20:55:33.152Z,16.50
2018-10-17T20:58:01.844Z,16.50
2018-10-17T21:00:30.530Z,16.50
2018-10-17T21:02:59.466Z,16.50
2018-10-17T21:05:28.347Z,16.50
2018-10-17T21:07:58.175Z,16.50
2018-10-17T21:10:26.794Z,16.40
2018-10-17T21:12:56.656Z,16.40
2018-10-17T21:15:30.206Z,16.40
2018-10-17T21:17:59.091Z,16.50
2018-10-17T21:20:27.797Z,16.30
2018-10-17T21:22:56.405Z,16.30
2018-10-17T21:25:25.054Z,16.40
2018-10-17T21:27:53.627Z,16.30
2018-10-17T21:30:26.191Z,16.30
2018-10-17T21:32:55.178Z,16.30
2018-10-17T21:35:25.976Z,16.30
2018-10-17T21:37:54.809Z,16.30
2018-10-17T21:40:23.430Z,16.30
2018-10-17T21:42:52.011Z,16.20
2018-10-17T21:45:20.824Z,16.20
2018-10-17T21:47:49.601Z,16.20
2018-10-17T21:50:18.389Z,16.10
2018-10-17T21:52:47.103Z,16.10
2018-10-17T21:55:15.745Z,16.20
2018-10-17T21:57:44.328Z,16.20
2018-10-17T22:00:13.018Z,16.20
2018-10-17T22:02:42.681Z,16.10
2018-10-17T22:05:11.675Z,16.20
2018-10-17T22:07:40.992Z,16.20
2018-10-17T22:10:09.855Z,16.20
2018-10-17T22:12:38.575Z,16.10
2018-10-17T22:15:08.201Z,16.10
2018-10-17T22:17:36.891Z,16.10
2018-10-17T22:20:05.956Z,16.10
2018-10-17T22:22:34.539Z,16.10
2018-10-17T22:25:03.215Z,16.00
2018-10-17T22:27:35.444Z,16.00
2018-10-17T22:30:04.462Z,15.90
2018-10-17T22:32:33.012Z,15.90
2018-10-17T22:35:01.651Z,15.90
2018-10-17T22:37:30.413Z,15.90
2018-10-17T22:39:59.127Z,15.80
2018-10-17T22:42:27.712Z,15.80
2018-10-17T22:44:56.500Z,15.80
2018-10-17T22:47:25.401Z,15.70
2018-10-17T22:49:54.221Z,15.70
2018-10-17T22:52:22.939Z,15.70
2018-10-17T22:54:52.648Z,15.70
2018-10-17T22:57:21.302Z,15.70
2018-10-17T22:59:50.081Z,15.70
2018-10-17T23:02:18.771Z,15.70
2018-10-17T23:04:47.504Z,15.70
2018-10-17T23:07:16.217Z,15.60
2018-10-17T23:09:45.104Z,15.60
2018-10-17T23:12:13.823Z,15.60
2018-10-17T23:14:42.564Z,15.60
2018-10-17T23:17:12.430Z,15.50
2018-10-17T23:19:41.220Z,15.50
2018-10-17T23:22:10.413Z,15.50
2018-10-17T23:24:39.335Z,15.50
2018-10-17T23:27:08.063Z,15.50
2018-10-17T23:29:37.186Z,15.40
2018-10-17T23:32:06.429Z,15.40
2018-10-17T23:34:35.296Z,15.40
2018-10-17T23:37:04.109Z,15.40
2018-10-17T23:39:33.028Z,15.40
2018-10-17T23:42:01.719Z,15.40
2018-10-17T23:44:30.464Z,15.30
2018-10-17T23:46:59.464Z,15.30
2018-10-17T23:49:29.217Z,15.30
2018-10-17T23:51:58.052Z,15.40
2018-10-17T23:54:26.800Z,15.40
2018-10-17T23:56:55.479Z,15.40
2018-10-17T23:59:24.188Z,15.40
